Date,TemperatureHighF,TemperatureAvgF,TemperatureLowF,DewpointHighF,DewpointAvgF,DewpointLowF,HumidityHigh,HumidityAvg,HumidityLow,PressureMaxIn,PressureMinIn,WindSpeedMaxMPH,WindSpeedAvgMPH,GustSpeedMaxMPH,PrecipitationSumIn
2014-1-1,45.6,32.5,23.9,28.2,23.3,17.7,89,70,47,30.41,30.11,11,1,11,0.00
2014-1-2,34.5,30.8,27.8,30.8,28.4,25.1,95,91,86,30.11,29.64,10,1,10,0.00
2014-1-3,27.7,18.6,9.5,25.9,6.9,0.5,93,62,39,30.49,29.67,32,7,32,0.00
2014-1-4,31.1,17.6,4.9,15.5,8.1,-0.1,85,68,47,30.50,30.25,14,1,14,0.00
2014-1-5,32.9,24.5,13.4,31.9,21.9,10.0,96,90,82,30.27,29.67,3,0,5,0.09
2014-1-6,43.2,29.2,6.1,42.1,19.5,-9.5,97,68,42,30.09,29.49,43,11,43,0.24
2014-1-7,15.1,8.4,2.1,-2.8,-6.7,-11.2,61,50,40,30.46,30.09,28,8,28,0.00
2014-1-8,27.6,18.1,8.0,14.5,4.8,-3.8,75,56,40,30.60,30.45,9,1,9,0.00
2014-1-9,37.2,28.7,21.3,23.8,18.9,13.5,78,67,54,30.65,30.49,8,1,9,0.00
2014-1-10,35.3,32.8,30.5,33.7,29.9,22.9,95,89,73,30.54,30.13,5,0,5,0.31
2014-1-11,51.0,41.1,33.8,48.5,39.7,32.6,98,95,69,30.13,29.39,25,2,25,0.64
2014-1-12,49.1,42.2,29.7,39.4,31.6,25.6,88,66,56,30.10,29.57,34,7,34,0.00
2014-1-13,53.3,40.0,24.7,41.8,32.4,22.7,96,76,57,30.09,29.84,11,2,11,0.00
2014-1-14,49.2,44.1,32.7,45.8,41.0,31.2,95,89,76,29.91,29.68,16,2,16,0.09
2014-1-15,46.2,34.4,28.2,41.4,31.3,27.0,97,89,59,29.98,29.88,20,2,20,0.01
2014-1-16,38.3,31.6,23.9,31.0,21.6,17.7,89,67,51,30.03,29.89,16,3,16,0.00
2014-1-17,47.4,33.7,22.8,30.5,25.8,19.3,91,74,50,29.96,29.83,11,1,11,0.00
2014-1-18,36.7,25.7,17.4,33.2,16.2,9.1,92,68,52,30.00,29.81,29,7,29,0.00
2014-1-19,44.1,30.3,17.8,29.4,20.0,11.5,84,66,49,29.95,29.72,23,2,23,0.00
2014-1-20,51.9,39.1,27.9,32.0,26.8,21.9,82,62,41,29.88,29.66,24,4,24,0.00
2014-1-21,38.7,26.3,14.0,29.1,22.1,6.6,92,84,64,29.92,29.76,22,5,22,0.00
2014-1-22,17.0,11.0,4.2,6.5,-0.4,-3.4,73,60,44,30.10,29.91,21,6,21,0.00
2014-1-23,23.0,11.0,-2.5,14.4,1.4,-7.2,85,66,49,30.46,30.09,24,5,25,0.00
2014-1-24,22.1,13.8,7.8,1.6,-1.0,-3.2,62,52,34,30.53,30.04,29,6,29,0.00
2014-1-25,33.5,25.0,15.5,21.1,9.9,1.7,70,52,44,30.04,29.45,32,6,32,0.00
2014-1-26,30.3,24.5,16.3,18.5,9.9,3.7,80,54,40,29.90,29.68,28,4,28,0.00
2014-1-27,41.3,28.3,16.8,29.7,13.3,0.1,66,53,37,30.20,29.63,25,5,32,0.00
2014-1-28,16.7,12.3,8.0,5.5,-3.7,-7.6,76,48,41,30.44,30.20,27,4,27,0.00
2014-1-29,22.7,15.5,7.4,6.4,-0.9,-6.4,80,50,33,30.36,30.21,21,4,21,0.00
2014-1-30,31.0,19.5,4.5,11.2,3.6,-3.5,76,51,35,30.46,30.16,13,1,13,0.00
2014-1-31,43.5,29.9,20.5,22.6,17.9,11.0,79,62,35,30.24,30.10,6,1,6,0.00
2014-2-1,49.0,34.5,23.2,25.1,21.9,18.5,84,63,35,30.28,29.98,11,1,11,0.00
2014-2-2,58.7,41.0,28.0,41.6,32.6,23.5,87,73,49,30.09,29.92,18,1,18,0.00
2014-2-3,42.3,35.6,32.4,38.8,33.4,29.7,96,92,87,30.34,30.03,12,3,12,1.17
2014-2-4,33.1,29.4,24.2,29.7,23.9,20.9,91,80,70,30.49,30.16,10,2,10,0.02
2014-2-5,40.2,33.2,27.9,37.0,29.8,20.4,96,88,64,30.17,29.68,43,3,43,0.63
2014-2-6,34.9,29.3,25.5,21.5,19.5,17.9,77,67,53,30.35,30.13,28,4,28,0.00
2014-2-7,39.1,31.4,26.1,25.6,20.5,15.0,75,64,55,30.35,30.26,17,3,17,0.00
2014-2-8,31.8,27.4,21.6,23.0,18.7,14.4,84,70,56,30.34,30.18,8,1,8,0.00
2014-2-9,33.2,28.7,21.0,29.0,24.2,17.4,93,83,66,30.20,29.97,19,2,19,0.00
2014-2-10,32.7,26.7,20.7,22.9,14.9,9.8,69,61,49,30.34,30.05,19,4,19,0.00
2014-2-11,29.2,21.7,13.9,14.5,10.7,7.9,79,63,47,30.49,30.33,14,2,14,0.00
2014-2-12,27.2,23.0,10.8,19.5,13.2,4.7,90,67,51,30.52,30.17,11,3,11,0.00
2014-2-13,35.7,30.2,22.0,32.9,28.1,19.5,95,92,79,30.17,29.36,36,7,36,0.00
2014-2-14,47.6,39.3,33.8,29.5,25.4,20.0,79,58,41,29.73,29.39,41,6,41,0.19
2014-2-15,36.9,33.5,27.2,32.5,26.4,12.8,90,76,54,29.95,29.62,31,6,31,0.01
2014-2-16,34.9,28.5,24.0,24.4,16.8,11.0,88,62,46,30.22,29.94,21,3,25,0.00
2014-2-17,31.6,26.7,18.7,22.5,13.2,7.6,84,57,38,30.46,30.19,17,3,17,0.00
2014-2-18,53.2,36.1,22.1,31.3,24.7,19.2,92,67,31,30.21,30.01,23,3,23,0.03
2014-2-19,56.1,42.1,29.8,42.8,31.3,23.0,92,67,39,30.15,29.69,32,4,32,0.10
2014-2-20,50.7,40.5,27.7,33.1,28.6,23.8,91,65,36,30.24,29.92,18,1,18,0.00
2014-2-21,52.8,42.8,36.3,48.1,35.5,24.9,96,77,42,29.98,29.63,27,3,27,0.33
2014-2-22,61.2,47.8,36.9,31.6,25.2,21.4,67,42,24,30.10,29.98,26,4,26,0.00
2014-2-23,56.2,46.4,35.6,37.9,30.8,25.8,85,56,39,30.01,29.87,18,3,18,0.01
2014-2-24,41.5,36.4,32.1,34.9,18.3,10.6,85,49,32,30.13,29.92,33,10,33,0.00
2014-2-25,36.6,31.5,28.1,28.2,18.2,11.0,88,59,42,30.12,29.99,16,4,16,0.04
2014-2-26,35.4,28.3,17.2,23.4,14.9,7.2,81,58,36,30.00,29.85,20,4,20,0.00
2014-2-27,36.2,23.9,14.5,15.2,9.2,2.7,79,56,32,30.18,29.70,33,6,33,0.00
2014-2-28,27.5,18.2,8.1,6.9,0.3,-4.0,65,46,28,30.43,30.18,9,2,14,0.00
2014-3-1,42.4,28.3,13.6,24.2,15.3,5.7,80,59,39,30.38,30.16,13,1,13,0.00
2014-3-2,48.2,37.7,32.9,36.7,30.6,24.3,93,76,51,30.16,30.00,14,2,14,0.28
2014-3-3,32.9,19.0,5.7,30.6,12.8,0.1,92,77,54,30.36,30.01,12,4,17,0.04
2014-3-4,28.7,17.2,4.4,11.1,5.6,-0.9,85,63,31,30.44,30.25,7,1,7,0.20
2014-3-5,41.9,27.9,12.0,19.5,13.8,7.1,85,58,34,30.43,30.20,17,2,17,0.01
2014-3-6,34.3,27.7,21.7,21.9,16.7,11.5,70,63,56,30.58,30.37,12,4,17,0.00
2014-3-7,43.2,33.6,27.9,31.9,25.8,18.8,85,73,63,30.37,29.95,12,3,12,0.00
2014-3-8,62.1,47.3,27.2,40.6,33.4,23.8,91,61,38,29.96,29.87,19,4,19,0.00
2014-3-9,49.2,43.4,37.3,36.8,25.4,16.2,73,51,30,30.12,29.92,18,6,18,0.00
2014-3-10,67.3,48.9,31.9,37.4,29.7,22.4,76,49,30,30.00,29.64,21,3,21,0.00
2014-3-11,68.3,57.8,42.6,44.6,39.4,32.0,80,51,39,29.71,29.61,23,4,24,0.00
2014-3-12,68.9,47.9,30.5,57.5,40.1,19.1,91,75,56,29.63,29.03,43,7,54,0.21
2014-3-13,32.4,26.5,17.8,19.0,7.5,0.6,63,45,32,30.17,29.53,35,11,35,0.00
2014-3-14,58.3,41.7,24.1,26.1,17.8,9.3,59,39,27,30.21,29.85,21,4,21,0.00
2014-3-15,62.3,53.5,44.0,38.1,27.2,22.7,67,38,22,30.05,29.79,23,6,33,0.00
2014-3-16,46.3,37.4,27.1,29.5,25.4,17.8,92,64,38,30.18,30.05,17,4,17,0.00
2014-3-17,33.5,27.7,23.2,25.1,22.8,20.5,92,82,65,30.10,30.00,13,3,13,0.04
2014-3-18,42.9,35.1,28.3,27.8,24.6,20.5,87,67,47,30.24,30.08,11,2,11,0.30
2014-3-19,40.9,37.8,34.6,38.9,34.2,27.4,95,87,68,30.22,29.85,11,1,11,0.02
2014-3-20,54.9,47.7,37.8,42.5,31.7,24.8,97,57,33,30.00,29.81,32,9,32,0.01
2014-3-21,51.2,44.6,36.6,39.8,34.1,26.3,89,67,49,30.07,29.99,16,3,16,0.01
2014-3-22,68.2,51.6,36.4,43.1,34.7,29.9,92,59,25,30.03,29.83,26,4,26,0.00
2014-3-23,47.9,40.1,30.6,32.3,24.8,11.2,72,55,36,30.20,30.01,19,4,19,0.00
2014-3-24,40.0,29.2,18.9,16.4,11.4,8.6,69,48,29,30.32,30.13,17,4,17,0.00
2014-3-25,37.4,29.8,22.7,32.8,24.9,14.4,91,82,63,30.15,29.87,8,1,8,0.06
2014-3-26,33.9,29.5,24.2,27.6,15.3,8.6,94,58,35,30.32,29.91,23,7,29,0.06
2014-3-27,49.4,33.7,15.1,26.2,18.1,10.2,86,55,36,30.44,30.16,20,3,20,0.10
2014-3-28,63.9,52.2,39.7,53.5,42.8,24.1,91,71,48,30.16,29.97,22,4,22,0.12
2014-3-29,54.5,49.4,45.8,49.6,47.1,43.5,97,92,81,30.09,29.57,14,3,14,0.36
2014-3-30,46.4,41.7,35.4,45.6,38.3,33.6,97,88,70,29.85,29.55,28,10,33,0.87
2014-3-31,64.7,51.6,40.5,35.7,32.0,29.6,70,49,28,30.09,29.85,31,9,31,0.53
2014-4-1,66.5,50.4,34.0,40.4,35.1,28.5,85,58,36,30.17,29.93,13,2,13,0.16
2014-4-2,67.0,51.4,38.5,50.2,43.0,35.5,93,75,50,30.11,29.98,12,1,12,0.02
2014-4-3,64.1,55.2,47.8,52.1,47.7,44.2,94,77,58,30.11,29.91,13,2,13,0.02
2014-4-4,57.0,51.7,47.4,50.6,45.7,40.6,93,80,70,29.94,29.67,19,3,19,0.00
2014-4-5,53.7,49.2,43.2,47.4,35.0,28.5,96,59,44,30.17,29.73,31,9,31,0.01
2014-4-6,57.9,46.1,34.1,31.6,27.2,21.1,74,50,25,30.26,30.12,14,2,15,0.00
2014-4-7,44.0,41.9,39.4,42.7,37.4,27.6,96,85,56,30.16,29.61,10,2,12,0.28
2014-4-8,60.2,51.4,40.0,52.9,43.1,35.5,98,76,49,29.69,29.46,33,5,33,0.01
2014-4-9,64.5,52.2,36.9,40.7,34.2,28.1,91,54,29,30.05,29.69,19,4,19,0.00
2014-4-10,69.7,55.2,32.3,40.1,34.6,28.2,89,50,29,30.20,29.97,23,4,23,0.00
2014-4-11,79.8,63.0,53.2,54.4,45.1,36.8,90,55,29,30.04,29.88,18,3,18,0.01
2014-4-12,74.3,62.2,49.5,57.5,44.7,32.4,95,58,24,30.25,30.03,12,2,12,0.02
2014-4-13,82.7,68.3,50.5,60.1,54.0,47.4,93,63,40,30.12,29.92,20,4,20,0.00
2014-4-14,74.8,69.4,62.8,59.6,56.2,54.0,75,63,51,29.95,29.74,29,5,29,0.00
2014-4-15,69.0,53.4,34.6,63.4,48.9,21.3,96,85,59,30.07,29.50,28,7,28,0.85
2014-4-16,46.9,37.6,30.1,25.8,21.0,15.7,70,52,33,30.54,30.05,23,6,23,0.11
2014-4-17,56.4,42.4,28.8,36.0,29.7,22.9,82,63,39,30.66,30.52,16,3,16,0.00
2014-4-18,56.2,43.5,30.7,40.4,35.0,28.7,95,74,52,30.59,30.26,9,1,11,0.00
2014-4-19,67.6,52.8,38.6,45.8,37.1,29.9,93,60,30,30.32,30.21,13,2,13,0.00
2014-4-20,63.2,53.1,41.6,43.2,35.0,27.3,79,51,38,30.42,30.29,17,3,17,0.00
2014-4-21,70.0,52.1,33.2,39.8,33.3,23.4,95,56,18,30.29,29.86,11,1,11,0.00
2014-4-22,70.7,58.4,44.2,57.6,47.7,36.2,87,68,47,29.87,29.56,26,2,26,0.00
2014-4-23,56.6,51.1,46.2,43.8,36.8,31.8,66,58,50,30.01,29.70,39,9,39,0.00
2014-4-24,63.1,50.7,40.1,33.7,27.7,23.0,61,43,23,30.14,29.99,17,4,17,0.00
2014-4-25,69.0,51.8,39.4,55.0,43.6,31.0,95,75,40,30.02,29.72,19,2,19,0.75
2014-4-26,74.1,61.3,50.6,53.2,46.1,38.5,96,59,32,29.91,29.71,35,8,35,0.03
2014-4-27,64.8,54.1,42.7,43.1,37.7,33.4,78,55,36,30.09,29.90,16,4,16,0.00
2014-4-28,60.7,51.2,43.1,50.2,43.0,36.4,95,75,53,30.12,29.96,13,2,13,0.16
2014-4-29,48.6,47.4,45.5,47.5,46.3,44.2,97,96,95,30.21,30.05,14,4,19,0.79
2014-4-30,55.6,50.3,46.3,55.0,49.7,45.5,98,98,97,30.18,29.83,14,3,14,1.43
2014-5-1,74.3,63.2,54.4,63.8,54.0,40.6,99,75,46,29.86,29.69,17,3,17,0.04
2014-5-2,66.8,59.7,51.7,45.9,40.8,38.5,64,50,39,29.88,29.79,24,4,24,0.00
2014-5-3,69.8,59.4,49.2,48.5,44.7,41.4,88,60,39,29.88,29.71,20,2,20,0.00
2014-5-4,74.5,62.1,49.7,50.0,42.3,36.4,71,49,34,29.95,29.70,30,5,30,0.00
2014-5-5,62.9,53.4,43.6,46.8,38.7,32.5,94,60,37,30.06,29.89,19,4,19,0.51
2014-5-6,71.5,57.8,48.3,52.6,47.3,42.4,96,72,36,30.03,29.89,13,1,13,0.01
2014-5-7,61.4,53.4,46.6,54.4,47.1,40.2,94,80,56,30.28,30.03,12,2,12,0.33
2014-5-8,85.5,67.0,49.8,67.8,57.7,48.3,97,75,44,30.14,29.96,12,1,12,0.00
2014-5-9,77.4,67.8,62.1,67.6,63.2,59.8,95,86,70,30.09,29.90,10,1,10,0.00
2014-5-10,79.3,68.4,59.1,68.3,62.7,57.0,95,83,54,29.97,29.88,24,2,24,0.55
2014-5-11,79.1,68.4,57.9,58.9,54.7,47.1,95,65,35,30.13,29.94,19,3,19,0.30
2014-5-12,86.5,69.7,54.6,69.6,62.0,52.9,96,79,51,30.11,30.01,16,1,16,0.08
2014-5-13,88.0,73.9,62.8,71.6,65.7,61.3,96,78,50,30.14,30.01,23,2,23,0.05
2014-5-14,67.0,62.5,59.1,65.2,60.7,57.6,97,94,90,30.20,30.11,10,2,10,0.01
2014-5-15,79.0,68.9,63.3,70.7,65.9,62.3,98,91,72,30.13,29.85,17,2,18,0.29
2014-5-16,68.3,60.8,53.4,67.0,53.2,44.8,97,77,50,29.96,29.75,24,5,24,2.59
2014-5-17,64.7,57.1,48.5,46.4,42.8,37.6,83,61,38,30.18,29.96,21,4,21,0.11
2014-5-18,64.9,55.0,44.3,45.4,41.5,38.0,85,62,40,30.26,30.18,14,3,14,0.00
2014-5-19,70.2,56.1,38.8,48.8,41.8,37.0,96,64,31,30.31,30.15,14,2,14,0.00
2014-5-20,76.0,61.3,44.2,56.2,48.2,41.8,95,66,34,30.21,29.98,8,1,8,0.00
2014-5-21,73.5,65.3,55.4,64.8,59.1,52.5,94,81,68,29.99,29.87,7,1,7,0.00
2014-5-22,84.5,72.6,62.2,67.4,61.7,50.6,96,71,49,29.92,29.75,26,5,26,0.00
2014-5-23,75.3,65.6,55.7,57.4,50.8,45.0,82,60,42,30.04,29.88,20,6,20,0.00
2014-5-24,74.8,63.9,51.4,57.7,51.5,46.6,84,65,47,30.11,30.02,16,4,17,0.00
2014-5-25,78.8,66.0,49.4,59.5,52.9,47.5,96,66,36,30.17,30.07,10,1,10,0.00
2014-5-26,83.3,69.2,51.6,67.1,57.3,49.9,97,69,38,30.12,29.95,12,2,12,0.00
2014-5-27,86.5,73.8,62.7,71.7,65.0,57.3,96,75,57,29.97,29.81,57,3,57,0.61
2014-5-28,82.8,74.7,61.2,72.1,66.8,59.1,96,77,64,30.04,29.83,23,5,23,0.01
2014-5-29,61.1,57.0,55.4,59.1,55.8,54.3,97,96,93,30.17,30.04,15,2,17,0.29
2014-5-30,72.3,61.8,55.5,61.9,57.3,55.0,98,86,62,30.15,30.06,11,2,11,0.04
2014-5-31,77.7,66.1,53.7,59.0,52.4,47.1,94,65,36,30.24,30.10,16,2,16,0.00
2014-6-1,75.5,63.7,49.3,59.8,53.8,47.7,97,72,50,30.34,30.20,11,2,12,0.00
2014-6-2,80.5,68.0,54.5,65.7,58.2,51.1,91,72,55,30.26,30.02,12,2,12,0.00
2014-6-3,82.9,72.7,59.9,71.7,65.4,58.2,96,79,62,30.03,29.82,15,2,15,0.00
2014-6-4,84.0,74.4,65.2,67.6,64.0,60.3,95,72,48,29.87,29.67,20,2,20,0.71
2014-6-5,77.8,67.8,60.0,64.9,59.5,53.2,97,77,49,29.87,29.57,17,3,17,0.18
2014-6-6,76.5,65.7,55.1,59.0,53.7,48.4,90,67,46,29.99,29.86,14,2,14,0.00
2014-6-7,80.8,67.0,51.4,62.8,56.9,50.0,97,73,45,30.04,29.93,9,1,9,0.00
2014-6-8,81.7,68.8,54.9,70.1,63.0,53.5,97,83,61,29.97,29.78,17,2,17,0.50
2014-6-9,81.3,73.9,65.9,73.3,69.1,64.8,98,86,70,29.87,29.82,9,1,9,0.01
2014-6-10,83.6,74.3,66.1,74.8,69.4,64.6,97,86,64,29.92,29.84,8,1,8,0.03
2014-6-11,84.2,72.1,65.5,74.8,68.6,64.2,97,90,64,29.97,29.85,18,2,18,1.44
2014-6-12,73.8,70.0,66.1,72.9,69.0,65.0,98,96,94,29.95,29.81,14,2,14,0.38
2014-6-13,82.3,73.3,66.4,72.7,68.6,62.5,98,86,65,29.86,29.71,23,2,23,0.10
2014-6-14,74.0,67.0,57.2,63.7,57.3,53.5,92,72,51,30.11,29.86,18,3,18,0.00
2014-6-15,80.6,66.6,50.1,64.5,57.0,48.7,97,74,45,30.18,30.06,9,1,9,0.00
2014-6-16,89.1,73.3,58.3,72.6,64.7,57.2,97,78,44,30.12,30.02,37,1,37,0.44
2014-6-17,90.4,78.9,65.3,77.1,71.1,64.4,98,79,58,30.09,29.93,11,2,14,0.00
2014-6-18,91.0,82.4,73.7,79.3,72.7,66.1,92,73,59,30.01,29.92,13,2,13,0.00
2014-6-19,83.6,75.4,67.4,73.0,69.1,65.2,95,81,65,30.02,29.89,18,3,18,0.12
2014-6-20,81.0,71.0,61.5,66.5,61.5,50.7,96,74,46,30.06,29.91,10,1,10,0.00
2014-6-21,68.3,66.1,64.5,64.8,63.2,61.3,95,91,84,29.93,29.87,10,1,10,0.16
2014-6-22,78.4,69.7,62.8,66.8,63.6,61.0,96,82,62,29.99,29.88,7,1,7,0.00
2014-6-23,81.2,70.7,58.0,67.6,62.7,56.9,97,78,57,30.10,29.99,16,2,16,0.00
2014-6-24,84.5,74.2,61.9,74.9,66.9,59.2,94,78,68,30.11,29.95,15,2,15,0.00
2014-6-25,87.2,76.2,66.4,75.8,70.2,64.3,97,83,65,29.98,29.78,14,1,14,0.00
2014-6-26,84.5,77.0,70.0,70.8,67.7,63.2,92,74,56,29.97,29.83,14,3,14,0.00
2014-6-27,85.9,75.1,64.0,72.8,67.1,61.4,95,77,55,30.16,29.97,17,2,17,0.00
2014-6-28,83.2,73.5,62.7,66.4,63.3,57.8,96,73,46,30.25,30.16,13,2,13,0.00
2014-6-29,83.5,73.6,63.8,64.3,61.3,56.7,92,68,41,30.23,30.07,15,2,15,0.00
2014-6-30,86.4,75.8,64.2,74.9,68.0,60.9,93,77,63,30.09,29.90,7,1,13,0.00
2014-7-1,90.2,80.0,69.0,76.8,72.6,67.0,96,79,60,29.93,29.79,12,2,12,0.00
2014-7-2,93.2,78.9,71.1,79.3,73.6,69.6,97,85,54,29.91,29.80,19,1,19,0.10
2014-7-3,87.5,75.2,68.7,77.2,71.2,67.5,97,88,66,29.97,29.86,22,1,22,0.22
2014-7-4,77.5,71.2,65.2,70.4,59.4,49.4,97,68,45,30.18,29.96,26,6,26,0.01
2014-7-5,80.2,69.3,58.7,59.3,53.6,48.9,87,59,37,30.27,30.14,12,3,13,0.00
2014-7-6,85.3,71.2,54.6,67.8,61.0,52.9,97,73,47,30.14,29.92,13,1,13,0.00
2014-7-7,89.2,79.2,68.6,73.3,68.1,63.7,87,70,56,29.92,29.76,21,2,21,0.00
2014-7-8,89.2,76.5,67.7,74.7,68.6,65.0,95,78,55,29.84,29.67,37,2,37,0.55
2014-7-9,86.3,74.5,65.8,73.3,69.0,64.3,97,84,59,29.94,29.79,14,2,14,0.00
2014-7-10,85.7,74.2,65.3,73.1,67.3,63.4,97,81,53,30.12,29.94,13,1,13,0.00
2014-7-11,84.5,73.6,61.7,71.0,65.9,60.2,97,78,53,30.19,30.10,8,1,8,0.00
2014-7-12,86.3,75.3,64.6,76.4,69.6,63.1,97,83,65,30.19,30.06,13,1,13,0.02
2014-7-13,88.2,77.4,69.6,77.4,71.4,67.3,96,82,64,30.07,29.85,27,2,27,0.76
2014-7-14,87.0,75.0,69.2,78.8,72.0,68.1,98,91,70,29.92,29.78,24,1,24,0.75
2014-7-15,83.2,74.2,68.4,75.4,71.1,66.7,98,91,73,29.81,29.70,11,1,11,0.70
2014-7-16,79.1,69.7,60.9,66.6,60.3,55.0,96,74,50,29.93,29.77,16,2,16,0.00
2014-7-17,79.0,69.6,58.9,63.3,58.0,54.7,91,68,47,30.13,29.93,13,3,13,0.00
2014-7-18,79.5,67.5,54.1,67.6,60.1,52.7,97,79,54,30.23,30.13,9,1,9,0.00
2014-7-19,78.9,69.9,64.1,68.1,64.0,62.2,95,83,59,30.20,30.10,11,1,11,0.03
2014-7-20,80.3,71.5,63.2,69.1,65.4,61.8,97,82,60,30.12,30.05,8,1,8,0.00
2014-7-21,82.0,74.0,69.1,73.0,69.3,66.6,95,86,71,30.17,30.09,10,1,10,0.00
2014-7-22,84.8,75.9,68.1,75.3,71.0,66.4,97,86,69,30.17,30.03,12,1,12,0.00
2014-7-23,90.5,77.7,68.5,78.4,71.8,67.1,97,83,59,30.03,29.75,26,2,26,0.47
2014-7-24,76.6,70.8,60.1,70.4,65.8,58.0,97,85,59,29.95,29.84,12,2,12,0.06
2014-7-25,79.7,67.5,54.5,64.8,59.3,53.4,97,77,52,30.08,29.95,12,1,12,0.00
2014-7-26,84.2,72.8,62.2,69.0,64.4,58.7,97,78,49,29.99,29.84,8,1,8,0.01
2014-7-27,85.5,75.6,67.9,74.6,70.3,66.0,95,84,65,29.86,29.55,16,3,16,0.08
2014-7-28,79.3,72.5,66.2,69.2,63.7,59.0,92,75,57,29.83,29.55,25,6,25,0.01
2014-7-29,72.2,64.2,54.7,59.4,54.0,50.6,87,70,50,30.02,29.82,21,4,21,0.00
2014-7-30,77.3,64.6,51.0,61.6,55.6,49.0,95,75,49,30.07,29.99,10,1,10,0.00
2014-7-31,84.3,70.1,55.9,66.3,61.3,54.2,97,76,47,30.10,30.03,12,1,12,0.00
2014-8-1,75.8,68.7,62.0,69.8,65.1,60.5,97,89,76,30.17,30.10,10,1,10,0.00
2014-8-2,78.2,70.5,62.3,69.0,64.6,59.8,94,82,70,30.15,30.04,9,1,9,0.00
2014-8-3,82.5,72.5,64.3,71.8,67.7,62.6,97,86,62,30.07,29.96,14,1,14,0.24
2014-8-4,81.8,70.8,59.7,69.5,64.7,58.6,98,83,58,30.10,30.03,12,2,12,0.01
2014-8-5,86.1,73.4,60.1,71.2,64.9,59.0,98,77,45,30.07,29.92,9,1,13,0.00
2014-8-6,78.8,70.6,62.8,70.4,65.7,61.1,96,85,68,29.96,29.88,9,1,9,0.00
2014-8-7,80.3,71.1,60.3,67.5,62.7,56.0,97,77,45,30.04,29.93,13,2,13,0.00
2014-8-8,80.7,68.1,55.7,66.5,60.1,54.3,97,78,51,30.14,30.04,8,1,8,0.00
2014-8-9,82.3,70.7,59.7,70.3,64.6,58.3,97,82,60,30.11,30.03,9,1,9,0.00
2014-8-10,83.5,72.6,61.4,69.1,65.0,60.2,97,79,54,30.12,30.04,10,1,10,0.00
2014-8-11,79.0,68.9,59.0,67.1,63.3,57.6,97,84,55,30.09,29.99,14,1,14,0.29
2014-8-12,77.1,70.1,66.1,73.9,68.5,64.8,97,95,88,29.99,29.74,14,1,14,0.69
2014-8-13,79.3,72.1,65.5,69.6,63.2,55.5,96,74,59,29.91,29.74,21,5,21,0.00
2014-8-14,80.3,67.9,54.2,64.2,56.2,51.0,95,68,41,29.94,29.83,17,3,17,0.00
2014-8-15,77.8,64.5,49.5,60.4,52.4,47.0,94,68,35,30.01,29.93,14,2,14,0.00
2014-8-16,79.7,64.9,48.8,61.8,55.4,47.3,97,75,44,30.03,29.92,11,1,11,0.00
2014-8-17,86.0,73.6,60.8,70.6,65.0,58.0,93,76,57,29.94,29.85,19,3,19,0.00
2014-8-18,81.3,71.6,62.5,69.6,65.2,60.6,96,81,64,29.92,29.77,10,1,10,0.00
2014-8-19,82.8,73.4,64.6,74.7,68.3,62.5,95,84,71,29.90,29.79,9,1,10,0.00
2014-8-20,85.3,72.1,65.1,75.1,68.7,63.3,97,90,68,30.00,29.88,22,1,22,1.03
2014-8-21,86.3,71.7,63.6,74.8,68.2,62.4,98,90,60,30.04,29.96,11,1,11,0.21
2014-8-22,80.7,73.1,67.0,72.9,69.0,64.9,95,87,75,29.99,29.92,8,1,11,0.00
2014-8-23,71.5,68.6,66.4,69.7,67.1,65.0,97,95,89,30.08,29.95,13,2,13,0.71
2014-8-24,77.0,68.4,59.7,67.4,63.6,58.0,97,86,63,30.15,30.08,8,1,8,0.01
2014-8-25,79.8,67.1,55.9,66.5,60.2,54.8,98,80,51,30.18,30.11,11,1,11,0.00
2014-8-26,82.3,68.0,54.3,68.9,61.3,53.2,98,81,53,30.18,30.07,10,1,10,0.00
2014-8-27,85.8,72.1,57.2,73.5,65.8,56.0,98,82,60,30.08,29.89,10,1,10,0.00
2014-8-28,81.3,73.0,57.8,71.3,63.1,54.4,90,73,47,30.08,29.89,18,3,18,0.00
2014-8-29,77.0,64.5,51.2,62.9,56.6,49.5,97,77,54,30.20,30.08,11,1,11,0.00
2014-8-30,80.6,70.7,59.7,73.5,66.7,57.7,95,88,77,30.20,30.07,12,1,12,0.00
2014-8-31,87.9,75.3,68.8,76.9,72.0,67.6,98,90,67,30.10,29.97,12,1,12,0.00
2014-9-1,87.3,78.1,70.2,76.4,73.6,69.3,98,87,65,30.01,29.90,6,1,16,0.05
2014-9-2,88.6,77.3,69.7,76.3,71.4,67.3,96,83,61,29.95,29.80,19,2,24,0.36
2014-9-3,82.3,75.4,66.6,71.1,68.3,64.8,96,80,60,30.11,29.88,10,1,13,0.00
2014-9-4,86.5,74.7,63.3,75.7,69.4,62.1,97,85,66,30.16,30.05,11,1,13,0.00
2014-9-5,88.7,77.3,68.6,77.9,72.7,67.4,98,87,65,30.13,29.98,9,1,9,0.00
2014-9-6,90.6,76.8,70.1,76.3,71.9,68.6,98,86,58,30.00,29.83,19,2,23,0.26
2014-9-7,75.5,67.6,59.1,68.7,59.2,53.7,92,76,50,30.17,29.97,12,2,13,0.00
2014-9-8,75.5,63.1,53.1,66.2,59.0,51.7,97,87,69,30.24,30.16,18,1,18,0.00
2014-9-9,71.8,66.8,62.2,66.7,63.2,59.2,93,88,82,30.21,30.08,9,1,9,0.00
2014-9-10,78.0,69.9,65.4,69.8,66.1,63.9,95,88,72,30.11,29.95,11,1,11,0.00
2014-9-11,86.5,74.5,66.6,75.0,68.8,60.8,96,83,64,29.99,29.84,13,2,14,0.00
2014-9-12,71.7,64.8,59.0,61.6,57.8,54.4,90,78,63,30.15,29.98,13,2,13,0.00
2014-9-13,67.0,59.9,54.1,62.0,56.2,51.8,96,88,72,30.25,30.10,13,1,13,0.04
2014-9-14,66.5,57.1,47.6,54.9,50.0,44.7,94,78,58,30.33,30.19,10,1,10,0.00
2014-9-15,72.3,58.2,43.9,59.0,52.3,42.6,97,82,57,30.25,30.02,7,0,7,0.00
2014-9-16,75.3,64.6,51.7,59.7,55.9,49.1,95,75,51,30.04,29.97,19,3,19,0.00
2014-9-17,72.6,58.4,45.5,59.0,51.5,44.2,97,80,50,30.07,29.94,7,1,7,0.00
2014-9-18,75.1,61.6,52.6,59.9,54.3,50.0,97,80,47,30.11,29.95,9,1,10,0.00
2014-9-19,72.8,60.9,49.1,60.5,54.9,47.3,96,82,62,30.27,30.11,11,2,14,0.00
2014-9-20,78.9,67.8,59.5,64.4,60.4,56.3,96,79,55,30.26,30.01,11,1,11,0.00
2014-9-21,83.5,68.5,52.6,68.5,60.6,51.2,97,78,52,30.04,29.61,23,3,26,0.00
2014-9-22,70.5,63.0,52.8,53.2,49.8,44.4,80,63,47,30.24,29.75,23,5,23,0.00
2014-9-23,67.7,54.4,41.9,52.0,45.7,39.3,95,74,48,30.39,30.23,8,1,8,0.00
2014-9-24,67.0,55.2,42.8,59.2,51.4,41.5,97,88,74,30.49,30.38,7,1,11,0.13
2014-9-25,66.6,61.8,58.1,63.4,59.8,57.0,97,93,84,30.39,30.23,12,3,13,0.38
2014-9-26,75.2,63.8,53.0,64.2,57.7,51.0,98,82,56,30.26,30.17,12,2,14,0.01
2014-9-27,78.5,61.5,48.1,62.4,55.0,47.0,98,82,47,30.25,30.16,8,1,10,0.00
2014-9-28,77.5,61.2,48.8,66.8,56.2,47.7,98,85,49,30.20,30.03,6,0,7,0.00
2014-9-29,73.3,64.3,56.9,65.3,60.6,55.8,97,88,71,30.04,29.90,6,0,6,0.00
2014-9-30,71.9,64.7,61.6,65.4,62.3,60.2,97,92,79,29.93,29.83,12,1,14,0.27
2014-10-1,70.1,63.2,56.8,64.8,60.7,55.4,98,92,78,30.06,29.93,10,1,10,0.03
2014-10-2,74.3,63.1,55.6,64.6,59.5,54.2,98,89,64,30.14,30.04,9,1,9,0.00
2014-10-3,67.9,63.9,60.6,65.0,62.0,58.8,97,94,89,30.09,29.67,13,2,16,0.84
2014-10-4,65.9,58.8,44.5,65.0,48.3,31.8,98,70,43,29.82,29.59,29,6,29,0.05
2014-10-5,61.6,47.4,35.6,43.6,38.0,33.2,93,72,42,29.97,29.81,13,2,15,0.00
2014-10-6,71.2,54.9,36.5,53.1,46.0,35.2,97,75,50,30.00,29.88,23,3,23,0.00
2014-10-7,66.0,60.5,55.9,59.5,55.9,52.3,93,85,69,30.02,29.83,15,2,15,0.05
2014-10-8,74.3,63.4,52.3,57.5,52.0,45.2,96,70,41,30.02,29.83,19,4,19,0.00
2014-10-9,68.5,58.0,43.0,52.7,46.6,40.2,94,68,42,30.12,30.00,20,2,20,0.00
2014-10-10,60.8,56.9,54.4,55.2,52.4,49.6,93,85,68,30.12,30.05,7,1,9,0.03
2014-10-11,58.1,52.6,49.0,54.2,50.5,47.3,97,93,80,30.17,30.00,10,1,10,0.25
2014-10-12,59.9,53.2,46.7,52.4,48.6,44.3,97,85,63,30.29,30.17,8,1,10,0.00
2014-10-13,62.8,58.0,53.8,61.3,56.8,52.1,97,95,94,30.28,30.17,9,1,9,0.04
2014-10-14,79.0,70.3,61.1,70.2,66.5,60.2,98,88,72,30.17,29.90,20,4,20,0.01
2014-10-15,71.3,65.7,59.5,68.8,64.3,58.7,97,95,89,29.90,29.72,22,3,22,0.91
2014-10-16,66.7,59.7,55.2,60.3,57.1,54.5,98,92,73,29.75,29.69,6,1,7,0.01
2014-10-17,71.0,61.4,50.8,56.8,53.5,48.7,95,77,56,29.80,29.65,15,2,16,0.00
2014-10-18,67.5,58.0,51.1,54.3,48.2,41.7,92,71,51,29.88,29.60,27,6,27,0.00
2014-10-19,58.0,50.4,40.8,43.2,37.7,33.3,83,63,42,30.11,29.86,25,6,25,0.00
2014-10-20,62.7,49.2,34.6,51.2,42.4,32.6,96,79,54,30.12,29.91,11,1,11,0.00
2014-10-21,66.2,54.1,43.1,54.4,49.0,41.5,97,84,56,29.93,29.80,13,2,13,0.04
2014-10-22,55.3,52.7,50.8,50.7,48.6,44.0,94,86,75,30.00,29.88,20,6,20,0.19
2014-10-23,63.4,56.8,49.7,49.3,45.4,42.4,79,66,52,29.96,29.86,28,9,28,0.00
2014-10-24,66.8,57.5,51.6,46.9,42.7,36.0,76,59,39,30.01,29.88,20,6,23,0.00
2014-10-25,71.2,59.1,44.5,51.3,44.6,39.2,84,60,41,29.96,29.68,18,3,18,0.00
2014-10-26,67.7,61.5,53.9,53.2,35.8,28.5,66,39,25,29.92,29.65,29,8,29,0.00
2014-10-27,70.5,55.3,37.5,41.4,35.9,29.2,86,51,28,30.07,29.92,11,1,11,0.00
2014-10-28,82.8,63.8,47.1,60.5,50.7,40.6,87,64,41,30.03,29.88,14,1,14,0.00
2014-10-29,67.8,57.7,43.4,57.5,51.4,41.1,93,80,67,29.98,29.87,16,2,18,0.08
2014-10-30,56.7,48.3,40.8,43.7,40.1,37.8,95,74,53,30.08,29.98,12,2,12,0.01
2014-10-31,53.7,45.3,35.9,45.5,39.0,34.3,96,80,60,30.03,29.84,10,1,10,0.00
2014-11-1,50.0,47.1,43.3,42.1,38.6,32.3,86,72,63,29.95,29.78,24,5,24,0.00
2014-11-2,48.6,43.6,39.7,32.3,27.8,22.1,70,54,39,30.25,29.95,31,10,31,0.00
2014-11-3,58.6,48.2,39.0,31.6,25.7,19.5,73,43,26,30.34,30.19,24,3,25,0.00
2014-11-4,70.6,54.9,36.6,46.3,37.4,32.0,87,56,28,30.22,30.04,9,1,9,0.00
2014-11-5,65.7,57.6,51.5,54.4,46.7,38.6,93,69,45,30.18,30.05,15,2,15,0.09
2014-11-6,59.6,54.3,50.6,55.8,49.3,41.5,97,85,54,30.10,29.65,29,3,29,0.46
2014-11-7,52.2,47.0,37.5,42.5,34.5,25.0,81,62,45,30.06,29.71,35,7,35,0.00
2014-11-8,49.1,41.2,28.2,34.5,29.6,24.1,87,64,48,30.07,29.89,17,2,17,0.00
2014-11-9,56.0,45.4,34.3,39.6,34.9,31.0,90,68,46,30.03,29.89,16,2,18,0.00
2014-11-10,61.7,46.9,31.9,46.0,38.6,30.2,95,75,53,30.17,30.03,13,1,13,0.00
2014-11-11,68.3,50.3,33.4,54.8,44.6,31.9,96,82,60,30.08,29.87,10,1,10,0.00
2014-11-12,59.6,49.0,39.2,54.8,39.6,29.8,97,72,46,30.15,29.85,23,5,23,0.00
2014-11-13,42.9,39.0,35.3,34.5,30.7,27.7,90,72,60,30.16,30.05,15,3,19,0.00
2014-11-14,39.2,34.0,29.8,30.4,21.1,16.9,86,59,43,30.29,30.07,18,6,19,0.00
2014-11-15,41.5,32.3,24.6,24.0,20.0,18.4,83,61,41,30.44,30.28,21,4,21,0.00
2014-11-16,40.6,34.0,25.5,27.4,25.5,21.1,86,72,55,30.35,30.19,7,1,7,0.00
2014-11-17,46.1,40.4,36.9,45.1,37.2,25.7,97,89,63,30.02,29.54,16,4,36,0.20
2014-11-18,34.1,25.6,22.2,19.6,8.5,4.5,60,48,38,30.25,29.80,36,11,36,0.00
2014-11-19,33.6,27.3,17.9,16.3,11.9,7.4,73,52,42,30.35,30.00,18,4,19,0.00
2014-11-20,51.1,37.7,31.0,28.4,19.5,12.0,60,48,35,30.13,29.89,24,5,24,0.00
2014-11-21,35.1,29.0,18.9,15.4,12.2,10.0,77,50,36,30.54,30.13,33,5,33,0.00
2014-11-22,48.8,33.2,16.1,23.0,17.8,12.2,85,57,32,30.53,30.22,15,2,15,0.00
2014-11-23,53.0,42.3,30.0,51.9,30.3,21.9,96,63,44,30.23,29.74,13,1,13,0.20
2014-11-24,68.5,61.6,53.1,57.9,55.6,50.5,97,82,63,29.78,29.56,26,5,26,0.29
2014-11-25,58.4,49.4,37.9,50.5,36.2,30.5,91,62,39,30.15,29.78,25,4,25,0.00
2014-11-26,42.7,36.7,33.5,38.1,34.4,32.0,95,91,74,30.15,29.93,11,2,14,0.94
2014-11-27,43.3,37.2,33.8,36.0,32.2,25.3,94,83,67,30.19,29.99,24,4,24,0.43
2014-11-28,37.4,32.9,27.6,26.0,22.7,19.8,80,66,54,30.32,30.18,23,5,23,0.00
2014-11-29,43.1,36.5,27.8,30.7,27.0,22.2,84,69,55,30.32,30.13,17,2,17,0.00
2014-11-30,63.4,48.1,33.1,46.9,38.3,28.2,87,69,54,30.13,30.01,14,2,14,0.00
2014-12-1,71.0,53.7,40.5,56.1,45.2,32.7,90,74,58,30.47,30.10,25,4,25,0.00
2014-12-2,40.5,34.9,33.5,34.1,32.5,31.3,96,91,73,30.57,30.28,8,1,8,0.37
2014-12-3,51.1,41.3,35.0,46.8,37.1,27.5,97,86,58,30.31,30.03,27,4,27,0.04
2014-12-4,44.4,39.1,31.9,32.5,29.4,25.9,80,68,57,30.48,30.29,17,2,17,0.00
2014-12-5,40.6,38.4,37.5,38.1,35.3,32.2,96,89,79,30.52,30.30,11,1,11,0.09
2014-12-6,46.2,41.8,39.1,45.4,40.7,37.7,97,96,87,30.30,30.03,16,2,16,0.64
2014-12-7,45.6,38.7,33.0,37.7,25.8,17.3,87,61,44,30.58,30.29,21,5,21,0.00
2014-12-8,33.0,31.0,28.4,29.5,22.4,16.8,93,71,53,30.58,30.26,13,3,13,0.03
2014-12-9,41.6,36.2,31.1,37.9,34.1,29.3,95,92,79,30.27,29.90,19,4,19,0.44
2014-12-10,45.3,40.7,35.0,35.7,32.3,25.5,79,72,64,29.90,29.80,35,13,35,0.00
2014-12-11,39.2,36.1,32.4,25.5,19.8,10.1,68,53,31,30.01,29.80,42,12,42,0.00
2014-12-12,40.9,37.1,34.0,28.1,24.5,14.1,71,60,37,30.12,29.99,16,6,32,0.00
2014-12-13,46.1,37.7,30.1,33.7,28.9,24.0,82,71,55,30.13,30.00,13,3,16,0.00
2014-12-14,51.4,47.2,39.9,40.7,38.6,32.5,77,72,65,30.03,29.95,26,6,26,0.00
2014-12-15,55.7,47.7,35.6,44.2,40.4,33.5,92,76,63,30.10,30.00,13,2,13,0.00
2014-12-16,45.7,38.1,30.4,44.2,37.0,28.9,97,96,92,30.03,29.85,17,1,17,0.19
2014-12-17,49.9,45.0,36.8,44.0,34.5,24.3,93,67,50,30.07,29.89,27,7,27,0.01
2014-12-18,38.6,34.7,32.1,26.3,24.2,21.1,74,65,59,30.18,30.06,23,5,23,0.00
2014-12-19,38.4,34.2,29.7,27.1,24.9,22.9,76,69,61,30.26,30.10,20,5,20,0.00
2014-12-20,35.3,31.3,28.0,25.5,23.3,20.7,84,72,62,30.33,30.21,15,1,15,0.00
2014-12-21,40.1,32.6,25.1,28.5,25.7,21.3,86,76,62,30.36,30.27,7,0,7,0.00
2014-12-22,34.1,30.0,23.3,32.8,27.5,20.5,95,90,82,30.32,30.10,6,1,6,0.18
2014-12-23,41.6,38.3,34.2,40.8,37.4,32.8,97,97,95,30.10,30.01,6,0,6,0.12
2014-12-24,53.6,45.2,40.8,53.0,44.6,40.0,98,98,97,30.02,29.51,16,1,16,0.76
2014-12-25,53.2,47.3,40.1,52.7,36.8,31.3,98,67,54,30.23,29.57,34,9,34,0.02
2014-12-26,51.3,40.4,32.3,35.4,31.5,27.7,90,72,51,30.34,30.20,12,2,15,0.00
2014-12-27,58.4,42.0,28.5,39.5,31.6,26.7,95,70,37,30.31,30.03,7,0,7,0.00
2014-12-28,57.6,47.6,39.7,46.2,40.1,32.1,88,76,64,30.12,29.91,13,2,13,0.01
2014-12-29,43.1,40.0,36.4,35.7,29.2,25.3,75,65,55,30.28,30.11,11,2,11,0.00
2014-12-30,38.4,32.9,24.5,25.4,19.1,13.6,70,57,39,30.44,30.27,11,3,11,0.00
2014-12-31,34.8,29.8,25.9,18.0,13.5,8.8,63,51,37,30.45,30.22,18,5,18,0.00
2015-1-1,42.9,31.3,18.2,23.9,16.0,8.6,76,54,38,30.23,30.04,17,2,17,0.00
2015-1-2,44.1,37.4,27.2,26.2,23.3,20.1,80,57,45,30.42,30.09,15,4,25,0.00